createdAt,value
2022-08-21T00:02:15.000Z,100725.31
2022-08-21T00:04:48.245Z,100728.16
2022-08-21T00:07:25.328Z,100716.84
2022-08-21T00:09:54.357Z,100723.19
2022-08-21T00:12:24.673Z,100726.25
2022-08-21T00:14:58.112Z,100725.84
2022-08-21T00:17:27.322Z,100729.03
2022-08-21T00:19:55.680Z,100722.28
2022-08-21T00:22:24.149Z,100721.81
2022-08-21T00:24:52.862Z,100718.56
2022-08-21T00:27:23.092Z,100714.47
2022-08-21T00:29:51.532Z,100718.34
2022-08-21T00:32:23.369Z,100712.34
2022-08-21T00:34:52.078Z,100717.09
2022-08-21T00:37:21.174Z,100714.69
2022-08-21T00:39:49.789Z,100713.34
2022-08-21T00:42:20.884Z,100720.81
2022-08-21T00:44:52.606Z,100723.78
2022-08-21T00:47:21.849Z,100721.19
2022-08-21T00:49:50.685Z,100724.81
2022-08-21T00:52:24.230Z,100728.66
2022-08-21T00:54:54.129Z,100729.19
2022-08-21T00:57:32.084Z,100726.38
2022-08-21T01:00:09.240Z,100718.81
2022-08-21T01:02:37.676Z,100723.44
2022-08-21T01:05:07.505Z,100727.03
2022-08-21T01:07:36.341Z,100723.63
2022-08-21T01:10:05.949Z,100722.84
2022-08-21T01:12:34.934Z,100722.06
2022-08-21T01:15:08.278Z,100713.34
2022-08-21T01:17:37.782Z,100724.81
2022-08-21T01:20:11.148Z,100712.50
2022-08-21T01:22:41.537Z,100722.41
2022-08-21T01:25:13.161Z,100720.00
2022-08-21T01:27:41.726Z,100722.06
2022-08-21T01:30:16.778Z,100724.97
2022-08-21T01:32:45.364Z,100714.53
2022-08-21T01:35:15.179Z,100719.03
2022-08-21T01:37:45.956Z,100715.72
2022-08-21T01:40:19.278Z,100718.44
2022-08-21T01:42:49.661Z,100720.28
2022-08-21T01:45:18.561Z,100709.69
2022-08-21T01:47:47.795Z,100717.63
2022-08-21T01:50:21.134Z,100723.03
2022-08-21T01:52:52.920Z,100720.47
2022-08-21T01:55:22.920Z,100715.31
2022-08-21T01:57:52.017Z,100714.75
2022-08-21T02:00:24.893Z,100703.63
2022-08-21T02:02:54.405Z,100708.41
2022-08-21T02:05:23.109Z,100704.28
2022-08-21T02:07:57.530Z,100707.16
2022-08-21T02:10:30.736Z,100714.53
2022-08-21T02:13:00.887Z,100706.78
2022-08-21T02:15:31.181Z,100707.91
2022-08-21T02:18:02.589Z,100697.50
2022-08-21T02:20:37.433Z,100694.22
2022-08-21T02:23:08.314Z,100705.25
2022-08-21T02:25:37.466Z,100701.06
2022-08-21T02:28:08.699Z,100699.31
2022-08-21T02:30:41.145Z,100695.88
2022-08-21T02:33:11.834Z,100699.41
2022-08-21T02:35:43.561Z,100695.19
2022-08-21T02:38:16.848Z,100689.19
2022-08-21T02:40:50.919Z,100701.75
2022-08-21T02:43:22.577Z,100696.81
2022-08-21T02:45:52.436Z,100699.16
2022-08-21T02:48:25.897Z,100703.31
2022-08-21T02:50:57.561Z,100704.59
2022-08-21T02:53:28.624Z,100695.31
2022-08-21T02:56:00.796Z,100693.75
2022-08-21T02:58:32.353Z,100696.56
2022-08-21T03:01:01.146Z,100700.91
2022-08-21T03:03:30.558Z,100699.13
2022-08-21T03:05:59.171Z,100690.16
2022-08-21T03:08:28.912Z,100693.75
2022-08-21T03:10:57.940Z,100692.91
2022-08-21T03:13:26.640Z,100692.97
2022-08-21T03:15:55.105Z,100686.81
2022-08-21T03:18:24.206Z,100685.88
2022-08-21T03:20:53.294Z,100691.03
2022-08-21T03:23:21.872Z,100690.03
2022-08-21T03:25:52.095Z,100698.75
2022-08-21T03:28:24.746Z,100692.53
2022-08-21T03:30:54.226Z,100699.63
2022-08-21T03:33:23.759Z,100691.66
2022-08-21T03:36:02.090Z,100699.63
2022-08-21T03:38:33.248Z,100704.84
2022-08-21T03:41:03.771Z,100705.91
2022-08-21T03:43:32.889Z,100701.91
2022-08-21T03:46:02.895Z,100705.09
2022-08-21T03:48:31.993Z,100705.44
2022-08-21T03:51:00.755Z,100704.97
2022-08-21T03:53:29.346Z,100703.50
2022-08-21T03:55:58.165Z,100701.16
2022-08-21T03:58:30.162Z,100704.03
2022-08-21T04:01:01.887Z,100702.38
2022-08-21T04:03:31.015Z,100710.38
2022-08-21T04:06:00.225Z,100714.91
2022-08-21T04:08:28.661Z,100719.38
2022-08-21T04:11:00.463Z,100720.31
2022-08-21T04:13:30.343Z,100724.81
2022-08-21T04:16:00.113Z,100723.22
2022-08-21T04:18:28.813Z,100727.78
2022-08-21T04:20:59.746Z,100732.31
2022-08-21T04:23:28.712Z,100732.38
2022-08-21T04:25:59.053Z,100737.81
2022-08-21T04:28:30.472Z,100734.47
2022-08-21T04:31:00.146Z,100735.41
2022-08-21T04:33:28.583Z,100738.19
2022-08-21T04:35:57.304Z,100740.88
2022-08-21T04:38:25.690Z,100739.13
2022-08-21T04:40:54.672Z,100743.59
2022-08-21T04:43:24.399Z,100743.66
2022-08-21T04:45:55.691Z,100748.88
2022-08-21T04:48:26.165Z,100742.66
2022-08-21T04:50:59.608Z,100746.91
2022-08-21T04:53:35.729Z,100746.81
2022-08-21T04:56:10.331Z,100752.09
2022-08-21T04:58:42.552Z,100755.50
2022-08-21T05:01:19.235Z,100744.03
2022-08-21T05:03:49.880Z,100748.38
2022-08-21T05:06:19.428Z,100746.53
2022-08-21T05:08:50.965Z,100748.38
2022-08-21T05:11:27.415Z,100751.03
2022-08-21T05:13:57.224Z,100758.81
2022-08-21T05:16:37.055Z,100763.97
2022-08-21T05:19:07.260Z,100765.63
2022-08-21T05:21:36.984Z,100769.78
2022-08-21T05:24:05.813Z,100775.00
2022-08-21T05:26:38.295Z,100769.78
2022-08-21T05:29:15.137Z,100775.00
2022-08-21T05:31:46.296Z,100763.56
2022-08-21T05:34:16.097Z,100766.22
2022-08-21T05:36:44.784Z,100768.72
2022-08-21T05:39:13.187Z,100768.56
2022-08-21T05:41:41.661Z,100774.53
2022-08-21T05:44:10.594Z,100771.75
2022-08-21T05:46:40.312Z,100773.31
2022-08-21T05:49:10.212Z,100778.31
2022-08-21T05:51:38.824Z,100769.19
2022-08-21T05:54:07.448Z,100768.78
2022-08-21T05:56:36.218Z,100759.47
2022-08-21T05:59:08.725Z,100765.13
2022-08-21T06:01:37.520Z,100766.38
2022-08-21T06:04:06.960Z,100771.22
2022-08-21T06:06:37.076Z,100770.06
2022-08-21T06:09:06.093Z,100773.19
2022-08-21T06:11:35.495Z,100773.66
2022-08-21T06:14:05.137Z,100769.84
2022-08-21T06:16:33.519Z,100767.69
2022-08-21T06:19:03.063Z,100777.94
2022-08-21T06:21:32.348Z,100774.97
2022-08-21T06:24:02.148Z,100779.97
2022-08-21T06:26:30.566Z,100776.91
2022-08-21T06:28:59.207Z,100784.31
2022-08-21T06:31:30.778Z,100782.06
2022-08-21T06:33:59.468Z,100786.81
2022-08-21T06:36:28.109Z,100784.44
2022-08-21T06:38:56.992Z,100779.56
2022-08-21T06:41:27.897Z,100780.88
2022-08-21T06:43:58.053Z,100779.44
2022-08-21T06:46:29.918Z,100784.25
2022-08-21T06:48:59.181Z,100782.03
2022-08-21T06:51:28.684Z,100773.63
2022-08-21T06:53:59.457Z,100775.88
2022-08-21T06:56:29.434Z,100771.94
2022-08-21T06:59:00.205Z,100769.72
2022-08-21T07:01:29.552Z,100768.41
2022-08-21T07:03:58.117Z,100774.16
2022-08-21T07:06:26.936Z,100767.44
2022-08-21T07:08:58.934Z,100774.34
2022-08-21T07:11:29.231Z,100761.75
2022-08-21T07:13:58.066Z,100760.53
2022-08-21T07:16:27.083Z,100767.19
2022-08-21T07:18:55.522Z,100758.47
2022-08-21T07:21:26.199Z,100753.22
2022-08-21T07:23:55.557Z,100754.63
2022-08-21T07:26:25.624Z,100755.34
2022-08-21T07:28:56.188Z,100752.84
2022-08-21T07:31:27.070Z,100744.66
2022-08-21T07:33:55.832Z,100744.78
2022-08-21T07:36:24.503Z,100749.75
2022-08-21T07:38:53.287Z,100752.59
2022-08-21T07:41:26.327Z,100743.91
2022-08-21T07:43:56.248Z,100736.66
2022-08-21T07:46:25.752Z,100743.91
2022-08-21T07:48:54.473Z,100746.06
2022-08-21T07:51:28.540Z,100747.41
2022-08-21T07:54:00.205Z,100744.72
2022-08-21T07:56:29.197Z,100743.34
2022-08-21T07:58:58.935Z,100742.81
2022-08-21T08:01:28.134Z,100742.56
2022-08-21T08:03:57.188Z,100748.00
2022-08-21T08:06:26.949Z,100742.88
2022-08-21T08:08:55.358Z,100740.81
2022-08-21T08:11:23.773Z,100736.69
2022-08-21T08:13:54.597Z,100734.78
2022-08-21T08:16:24.414Z,100732.06
2022-08-21T08:18:52.781Z,100731.75
2022-08-21T08:21:21.871Z,100728.84
2022-08-21T08:23:50.740Z,100725.66
2022-08-21T08:26:19.156Z,100715.41
2022-08-21T08:28:48.709Z,100723.25
2022-08-21T08:31:17.093Z,100712.22
2022-08-21T08:33:46.962Z,100712.84
2022-08-21T08:36:17.162Z,100716.31
2022-08-21T08:38:48.889Z,100710.31
2022-08-21T08:41:22.289Z,100709.41
2022-08-21T08:43:55.687Z,100705.47
2022-08-21T08:46:32.945Z,100706.75
2022-08-21T08:49:08.798Z,100701.38
2022-08-21T08:51:48.502Z,100693.63
2022-08-21T08:54:32.443Z,100693.16
2022-08-21T08:57:02.532Z,100691.13
2022-08-21T08:59:40.589Z,100685.00
2022-08-21T09:02:11.941Z,100678.53
2022-08-21T09:04:42.810Z,100674.50
2022-08-21T09:07:21.960Z,100667.66
2022-08-21T09:10:04.104Z,100668.94
2022-08-21T09:12:46.921Z,100668.88
2022-08-21T09:15:30.523Z,100666.84
2022-08-21T09:18:29.197Z,100664.53
2022-08-21T09:21:11.958Z,100668.00
2022-08-21T09:23:52.288Z,100656.88
2022-08-21T09:26:24.812Z,100652.97
2022-08-21T09:28:57.099Z,100653.50
2022-08-21T09:31:31.439Z,100655.88
2022-08-21T09:34:01.937Z,100663.00
2022-08-21T09:36:40.408Z,100657.22
2022-08-21T09:39:11.045Z,100656.09
2022-08-21T09:41:40.864Z,100657.69
2022-08-21T09:44:10.725Z,100661.59
2022-08-21T09:46:39.194Z,100658.41
2022-08-21T09:49:13.443Z,100654.84
2022-08-21T09:51:55.190Z,100662.34
2022-08-21T09:54:31.384Z,100660.31
2022-08-21T09:57:20.365Z,100663.88
2022-08-21T09:59:49.615Z,100658.75
2022-08-21T10:02:32.797Z,100653.25
2022-08-21T10:05:04.145Z,100666.78
2022-08-21T10:07:38.402Z,100652.13
2022-08-21T10:10:10.741Z,100649.88
2022-08-21T10:12:51.853Z,100649.88
2022-08-21T10:15:26.429Z,100645.84
2022-08-21T10:18:05.937Z,100648.56
2022-08-21T10:20:46.257Z,100642.91
2022-08-21T10:23:37.764Z,100639.28
2022-08-21T10:26:22.979Z,100639.28
2022-08-21T10:29:02.597Z,100633.34
2022-08-21T10:31:45.211Z,100628.00
2022-08-21T10:34:31.652Z,100625.69
2022-08-21T10:37:19.885Z,100614.16
2022-08-21T10:40:03.089Z,100624.81
2022-08-21T10:42:41.134Z,100612.13
2022-08-21T10:45:24.437Z,100603.59
2022-08-21T10:47:59.137Z,100604.94
2022-08-21T10:50:33.978Z,100612.97
2022-08-21T10:53:18.020Z,100612.13
2022-08-21T10:55:58.195Z,100610.63
2022-08-21T10:58:32.244Z,100605.00
2022-08-21T11:01:14.203Z,100612.03
2022-08-21T11:03:47.699Z,100605.41
2022-08-21T11:06:22.864Z,100602.44
2022-08-21T11:09:00.620Z,100596.22
2022-08-21T11:11:38.252Z,100595.81
2022-08-21T11:14:22.576Z,100592.50
2022-08-21T11:16:59.431Z,100581.13
2022-08-21T11:19:34.205Z,100582.22
2022-08-21T11:22:15.402Z,100586.94
2022-08-21T11:24:52.672Z,100584.44
2022-08-21T11:27:28.674Z,100578.09
2022-08-21T11:30:00.885Z,100579.81
2022-08-21T11:32:57.452Z,100583.16
2022-08-21T11:35:39.839Z,100577.06
2022-08-21T11:38:30.481Z,100580.69
2022-08-21T11:41:25.401Z,100575.63
2022-08-21T11:44:14.091Z,100565.97
2022-08-21T11:46:51.331Z,100563.63
2022-08-21T11:49:43.708Z,100561.16
2022-08-21T11:52:20.418Z,100558.81
2022-08-21T11:54:55.502Z,100557.75
2022-08-21T11:57:31.280Z,100554.84
2022-08-21T12:00:09.286Z,100560.47
2022-08-21T12:02:47.155Z,100549.97
2022-08-21T12:05:31.898Z,100551.66
2022-08-21T12:08:08.949Z,100543.19
2022-08-21T12:10:41.913Z,100550.56
2022-08-21T12:13:23.385Z,100538.09
2022-08-21T12:16:13.852Z,100541.81
2022-08-21T12:18:43.591Z,100548.47
2022-08-21T12:21:26.925Z,100546.81
2022-08-21T12:24:17.177Z,100541.19
2022-08-21T12:26:53.099Z,100541.78
2022-08-21T12:29:27.733Z,100545.50
2022-08-21T12:32:02.213Z,100543.00
2022-08-21T12:34:38.511Z,100543.19
2022-08-21T12:37:17.401Z,100536.53
2022-08-21T12:39:50.504Z,100528.88
2022-08-21T12:42:24.941Z,100529.06
2022-08-21T12:45:00.636Z,100525.66
2022-08-21T12:47:36.844Z,100522.09
2022-08-21T12:50:09.354Z,100521.78
2022-08-21T12:52:46.122Z,100526.97
2022-08-21T12:55:16.725Z,100518.56
2022-08-21T12:57:45.103Z,100513.66
2022-08-21T13:00:17.040Z,100519.19
2022-08-21T13:02:51.721Z,100524.09
2022-08-21T13:05:32.958Z,100517.78
2022-08-21T13:08:06.481Z,100524.91
2022-08-21T13:10:36.907Z,100517.63
2022-08-21T13:13:12.297Z,100518.56
2022-08-21T13:15:47.757Z,100511.59
2022-08-21T13:18:26.257Z,100504.59
2022-08-21T13:21:04.554Z,100509.28
2022-08-21T13:23:33.544Z,100501.66
2022-08-21T13:26:03.755Z,100509.09
2022-08-21T13:28:38.660Z,100505.03
2022-08-21T13:31:12.201Z,100495.09
2022-08-21T13:33:43.469Z,100493.25
2022-08-21T13:36:19.294Z,100501.75
2022-08-21T13:38:48.498Z,100495.09
2022-08-21T13:41:24.495Z,100499.34
2022-08-21T13:44:03.029Z,100496.25
2022-08-21T13:46:35.456Z,100489.16
2022-08-21T13:49:07.977Z,100498.34
2022-08-21T13:51:37.226Z,100491.38
2022-08-21T13:54:23.142Z,100488.25
2022-08-21T13:56:51.782Z,100480.59
2022-08-21T13:59:29.857Z,100475.31
2022-08-21T14:02:02.406Z,100470.25
2022-08-21T14:04:40.148Z,100476.00
2022-08-21T14:07:19.932Z,100465.91
2022-08-21T14:09:49.485Z,100460.81
2022-08-21T14:12:30.189Z,100457.97
2022-08-21T14:15:00.660Z,100457.25
2022-08-21T14:17:34.166Z,100451.28
2022-08-21T14:20:06.363Z,100445.56
2022-08-21T14:22:40.936Z,100451.38
2022-08-21T14:25:15.309Z,100440.84
2022-08-21T14:27:52.406Z,100441.44
2022-08-21T14:30:32.582Z,100438.34
2022-08-21T14:33:01.737Z,100437.78
2022-08-21T14:35:31.970Z,100438.09
2022-08-21T14:38:00.676Z,100430.59
2022-08-21T14:40:29.465Z,100439.38
2022-08-21T14:42:58.926Z,100427.88
2022-08-21T14:45:31.068Z,100423.97
2022-08-21T14:48:00.898Z,100424.06
2022-08-21T14:50:30.813Z,100424.09
2022-08-21T14:52:59.300Z,100424.13
2022-08-21T14:55:29.065Z,100418.66
2022-08-21T14:57:59.627Z,100410.63
2022-08-21T15:00:35.735Z,100419.13
2022-08-21T15:03:05.197Z,100420.56
2022-08-21T15:05:34.970Z,100417.69
2022-08-21T15:08:04.023Z,100419.97
2022-08-21T15:10:34.868Z,100414.31
2022-08-21T15:13:04.563Z,100414.47
2022-08-21T15:15:40.657Z,100423.78
2022-08-21T15:18:09.769Z,100421.03
2022-08-21T15:20:40.254Z,100429.78
2022-08-21T15:23:14.758Z,100424.00
2022-08-21T15:25:44.475Z,100410.59
2022-08-21T15:28:14.589Z,100423.06
2022-08-21T15:30:44.828Z,100422.69
2022-08-21T15:33:13.484Z,100422.25
2022-08-21T15:35:43.320Z,100415.81
2022-08-21T15:38:11.828Z,100418.41
2022-08-21T15:40:47.737Z,100411.06
2022-08-21T15:43:30.320Z,100414.88
2022-08-21T15:46:01.700Z,100417.75
2022-08-21T15:48:30.607Z,100405.38
2022-08-21T15:51:00.334Z,100406.56
2022-08-21T15:53:28.763Z,100397.50
2022-08-21T15:55:57.148Z,100401.06
2022-08-21T15:58:25.809Z,100393.44
2022-08-21T16:00:54.193Z,100405.72
2022-08-21T16:03:23.051Z,100398.22
2022-08-21T16:05:53.356Z,100400.41
2022-08-21T16:08:23.398Z,100395.88
2022-08-21T16:10:52.892Z,100399.97
2022-08-21T16:13:27.724Z,100398.50
2022-08-21T16:15:56.435Z,100403.50
2022-08-21T16:18:26.584Z,100397.03
2022-08-21T16:20:55.406Z,100392.22
2022-08-21T16:23:25.192Z,100389.09
2022-08-21T16:25:53.924Z,100396.97
2022-08-21T16:28:24.677Z,100391.16
2022-08-21T16:30:53.404Z,100386.41
2022-08-21T16:33:36.848Z,100386.50
2022-08-21T16:36:07.293Z,100381.78
2022-08-21T16:38:38.866Z,100377.66
2022-08-21T16:41:12.107Z,100382.53
2022-08-21T16:43:42.782Z,100381.09
2022-08-21T16:46:14.112Z,100375.81
2022-08-21T16:48:44.883Z,100376.78
2022-08-21T16:51:13.835Z,100371.34
2022-08-21T16:53:44.292Z,100370.81
2022-08-21T16:56:16.725Z,100364.69
2022-08-21T16:58:48.629Z,100368.41
2022-08-21T17:01:20.971Z,100366.88
2022-08-21T17:03:51.754Z,100364.16
2022-08-21T17:06:22.025Z,100362.31
2022-08-21T17:08:53.037Z,100365.72
2022-08-21T17:11:36.494Z,100361.47
2022-08-21T17:14:12.840Z,100364.63
2022-08-21T17:16:45.486Z,100365.63
2022-08-21T17:19:14.704Z,100358.47
2022-08-21T17:21:43.344Z,100365.53
2022-08-21T17:24:15.725Z,100361.34
2022-08-21T17:26:45.605Z,100355.16
2022-08-21T17:29:16.092Z,100356.41
2022-08-21T17:31:45.648Z,100354.56
2022-08-21T17:34:16.243Z,100359.66
2022-08-21T17:36:44.622Z,100356.28
2022-08-21T17:39:22.507Z,100350.34
2022-08-21T17:42:06.496Z,100359.78
2022-08-21T17:44:35.922Z,100352.19
2022-08-21T17:47:04.685Z,100352.31
2022-08-21T17:49:33.425Z,100352.22
2022-08-21T17:52:01.853Z,100355.53
2022-08-21T17:54:32.100Z,100350.59
2022-08-21T17:57:01.076Z,100350.03
2022-08-21T17:59:29.918Z,100354.69
2022-08-21T18:02:01.436Z,100358.50
2022-08-21T18:04:31.059Z,100353.34
2022-08-21T18:06:59.521Z,100350.09
2022-08-21T18:09:28.458Z,100358.75
2022-08-21T18:12:00.107Z,100355.22
2022-08-21T18:14:33.441Z,100351.00
2022-08-21T18:17:03.269Z,100356.41
2022-08-21T18:19:31.659Z,100357.75
2022-08-21T18:22:04.428Z,100356.25
2022-08-21T18:24:33.352Z,100357.16
2022-08-21T18:27:04.196Z,100357.06
2022-08-21T18:29:32.913Z,100357.00
2022-08-21T18:32:03.221Z,100359.56
2022-08-21T18:34:34.904Z,100365.84
2022-08-21T18:37:05.156Z,100366.03
2022-08-21T18:39:36.793Z,100369.59
2022-08-21T18:42:11.984Z,100372.16
2022-08-21T18:44:40.980Z,100377.88
2022-08-21T18:47:14.901Z,100373.19
2022-08-21T18:49:43.612Z,100382.13
2022-08-21T18:52:20.284Z,100377.91
2022-08-21T18:54:49.745Z,100384.44
2022-08-21T18:57:20.904Z,100384.44
2022-08-21T18:59:49.558Z,100387.97
2022-08-21T19:02:17.913Z,100391.22
2022-08-21T19:04:48.134Z,100397.16
2022-08-21T19:07:19.731Z,100397.56
2022-08-21T19:10:07.613Z,100391.75
2022-08-21T19:12:41.521Z,100407.56
2022-08-21T19:15:15.582Z,100400.22
2022-08-21T19:17:47.024Z,100397.09
2022-08-21T19:20:36.427Z,100398.63
2022-08-21T19:23:07.433Z,100398.19
2022-08-21T19:25:37.373Z,100397.00
2022-08-21T19:28:14.263Z,100404.94
2022-08-21T19:30:58.211Z,100400.38
2022-08-21T19:33:34.074Z,100399.19
2022-08-21T19:36:04.290Z,100407.78
2022-08-21T19:38:32.919Z,100407.59
2022-08-21T19:41:02.159Z,100403.91
2022-08-21T19:43:35.165Z,100402.16
2022-08-21T19:46:04.016Z,100404.88
2022-08-21T19:48:33.583Z,100406.69
2022-08-21T19:51:02.078Z,100411.84
2022-08-21T19:53:30.443Z,100415.16
2022-08-21T19:55:58.969Z,100414.84
2022-08-21T19:58:38.914Z,100411.94
2022-08-21T20:01:16.838Z,100416.13
2022-08-21T20:03:53.812Z,100408.75
2022-08-21T20:06:23.889Z,100410.13
2022-08-21T20:08:54.676Z,100414.22
2022-08-21T20:11:31.285Z,100410.50
2022-08-21T20:14:02.124Z,100414.66
2022-08-21T20:16:32.157Z,100419.69
2022-08-21T20:19:03.306Z,100426.63
2022-08-21T20:21:43.481Z,100433.00
2022-08-21T20:24:14.707Z,100430.91
2022-08-21T20:26:48.760Z,100428.63
2022-08-21T20:29:23.863Z,100421.94
2022-08-21T20:31:52.793Z,100428.38
2022-08-21T20:34:21.328Z,100428.50
2022-08-21T20:36:50.016Z,100429.47
2022-08-21T20:39:23.948Z,100429.47
2022-08-21T20:41:53.905Z,100431.41
2022-08-21T20:44:29.657Z,100438.59
2022-08-21T20:46:59.028Z,100426.22
2022-08-21T20:49:34.595Z,100430.72
2022-08-21T20:52:05.033Z,100430.78
2022-08-21T20:54:41.627Z,100427.50
2022-08-21T20:57:16.096Z,100433.13
2022-08-21T20:59:54.932Z,100431.66
2022-08-21T21:02:38.719Z,100431.03
2022-08-21T21:05:16.112Z,100429.59
2022-08-21T21:08:02.348Z,100428.25
2022-08-21T21:10:38.352Z,100424.97
2022-08-21T21:13:21.165Z,100432.63
2022-08-21T21:15:56.596Z,100439.66
2022-08-21T21:18:32.491Z,100442.78
2022-08-21T21:21:06.222Z,100447.41
2022-08-21T21:23:45.349Z,100439.84
2022-08-21T21:26:19.385Z,100438.38
2022-08-21T21:28:55.876Z,100436.88
2022-08-21T21:31:29.541Z,100443.31
2022-08-21T21:34:00.777Z,100439.50
2022-08-21T21:36:43.791Z,100443.16
2022-08-21T21:39:36.348Z,100445.09
2022-08-21T21:42:12.542Z,100437.53
2022-08-21T21:45:09.611Z,100446.41
2022-08-21T21:47:59.060Z,100447.28
2022-08-21T21:50:49.551Z,100442.13
2022-08-21T21:53:37.994Z,100446.00
2022-08-21T21:56:18.449Z,100442.81
2022-08-21T21:59:29.924Z,100454.19
2022-08-21T22:02:06.996Z,100460.00
2022-08-21T22:04:50.967Z,100462.41
2022-08-21T22:07:32.082Z,100475.44
2022-08-21T22:10:30.058Z,100473.44
2022-08-21T22:13:13.612Z,100473.91
2022-08-21T22:15:55.041Z,100461.19
2022-08-21T22:18:28.001Z,100472.59
2022-08-21T22:21:05.290Z,100459.38
2022-08-21T22:23:39.535Z,100469.19
2022-08-21T22:26:14.488Z,100471.97
2022-08-21T22:28:47.701Z,100466.00
2022-08-21T22:31:21.624Z,100465.25
2022-08-21T22:34:17.998Z,100469.13
2022-08-21T22:36:59.391Z,100471.03
2022-08-21T22:39:38.584Z,100469.44
2022-08-21T22:42:13.519Z,100467.81
2022-08-21T22:44:52.900Z,100471.47
2022-08-21T22:47:24.988Z,100467.81
2022-08-21T22:49:59.636Z,100474.25
2022-08-21T22:52:35.269Z,100477.03
2022-08-21T22:55:24.165Z,100470.00
2022-08-21T22:58:10.526Z,100473.59
2022-08-21T23:00:50.549Z,100478.00
2022-08-21T23:03:33.987Z,100475.31
2022-08-21T23:06:13.067Z,100482.34
2022-08-21T23:08:44.068Z,100472.66
2022-08-21T23:11:17.757Z,100470.00
2022-08-21T23:13:51.016Z,100476.28
2022-08-21T23:19:50.789Z,100467.00
2022-08-21T23:22:37.292Z,100467.00
2022-08-21T23:25:32.643Z,100473.31
2022-08-21T23:28:13.629Z,100476.59
2022-08-21T23:30:54.432Z,100472.13
2022-08-21T23:33:44.845Z,100466.69
2022-08-21T23:36:41.088Z,100465.59
2022-08-21T23:39:26.069Z,100468.16
2022-08-21T23:42:02.185Z,100460.03
2022-08-21T23:44:47.317Z,100472.44
2022-08-21T23:47:34.977Z,100475.09
2022-08-21T23:50:14.012Z,100474.13
2022-08-21T23:53:00.688Z,100474.13
2022-08-21T23:56:01.112Z,100475.09
2022-08-21T23:58:45.389Z,100480.44
